sensor_id;sensor_type;location;lat;lon;timestamp;pressure;altitude;pressure_sealevel;temperature;humidity
84511;BME280;74730;43.858;18.424;2023-12-29T00:02:23;96120.00;;;2.78;71.23
84511;BME280;74730;43.858;18.424;2023-12-29T00:04:48;96116.63;;;2.77;71.79
84511;BME280;74730;43.858;18.424;2023-12-29T00:07:15;96125.84;;;2.68;71.84
84511;BME280;74730;43.858;18.424;2023-12-29T00:09:41;96124.41;;;2.76;71.65
84511;BME280;74730;43.858;18.424;2023-12-29T00:12:07;96119.44;;;2.74;71.85
84511;BME280;74730;43.858;18.424;2023-12-29T00:14:36;96130.69;;;2.72;72.07
84511;BME280;74730;43.858;18.424;2023-12-29T00:17:03;96133.38;;;2.70;71.62
84511;BME280;74730;43.858;18.424;2023-12-29T00:19:28;96133.94;;;2.74;72.11
84511;BME280;74730;43.858;18.424;2023-12-29T00:21:54;96129.66;;;2.74;71.21
84511;BME280;74730;43.858;18.424;2023-12-29T00:24:19;96128.84;;;2.74;71.33
84511;BME280;74730;43.858;18.424;2023-12-29T00:26:45;96111.34;;;2.69;71.52
84511;BME280;74730;43.858;18.424;2023-12-29T00:29:10;96112.16;;;2.70;72.10
84511;BME280;74730;43.858;18.424;2023-12-29T00:31:37;96114.94;;;2.66;71.56
84511;BME280;74730;43.858;18.424;2023-12-29T00:34:03;96109.41;;;2.61;71.87
84511;BME280;74730;43.858;18.424;2023-12-29T00:36:28;96115.59;;;2.59;71.74
84511;BME280;74730;43.858;18.424;2023-12-29T00:38:54;96111.56;;;2.56;71.87
84511;BME280;74730;43.858;18.424;2023-12-29T00:41:19;96107.00;;;2.60;71.59
84511;BME280;74730;43.858;18.424;2023-12-29T00:43:45;96112.22;;;2.58;71.83
84511;BME280;74730;43.858;18.424;2023-12-29T00:46:14;96107.94;;;2.59;71.71
84511;BME280;74730;43.858;18.424;2023-12-29T00:48:39;96112.34;;;2.57;71.32
84511;BME280;74730;43.858;18.424;2023-12-29T00:51:06;96111.25;;;2.50;71.26
84511;BME280;74730;43.858;18.424;2023-12-29T00:53:31;96109.06;;;2.45;71.82
84511;BME280;74730;43.858;18.424;2023-12-29T00:55:59;96104.47;;;2.39;71.45
84511;BME280;74730;43.858;18.424;2023-12-29T00:58:25;96110.06;;;2.33;72.35
84511;BME280;74730;43.858;18.424;2023-12-29T01:00:50;96111.25;;;2.29;72.13
84511;BME280;74730;43.858;18.424;2023-12-29T01:03:16;96107.75;;;2.30;72.00
84511;BME280;74730;43.858;18.424;2023-12-29T01:05:41;96118.22;;;2.27;72.23
84511;BME280;74730;43.858;18.424;2023-12-29T01:08:07;96115.91;;;2.24;72.20
84511;BME280;74730;43.858;18.424;2023-12-29T01:10:32;96118.47;;;2.24;72.58
84511;BME280;74730;43.858;18.424;2023-12-29T01:12:58;96117.50;;;2.25;71.63
84511;BME280;74730;43.858;18.424;2023-12-29T01:15:23;96124.50;;;2.23;72.52
84511;BME280;74730;43.858;18.424;2023-12-29T01:17:49;96118.03;;;2.19;72.92
84511;BME280;74730;43.858;18.424;2023-12-29T01:20:15;96126.03;;;2.14;73.34
84511;BME280;74730;43.858;18.424;2023-12-29T01:22:40;96128.22;;;2.19;73.71
84511;BME280;74730;43.858;18.424;2023-12-29T01:25:06;96125.66;;;2.19;72.60
84511;BME280;74730;43.858;18.424;2023-12-29T01:27:32;96115.59;;;2.17;72.48
84511;BME280;74730;43.858;18.424;2023-12-29T01:29:59;96114.09;;;2.15;72.07
84511;BME280;74730;43.858;18.424;2023-12-29T01:32:25;96117.81;;;2.11;72.02
84511;BME280;74730;43.858;18.424;2023-12-29T01:34:52;96121.53;;;2.07;72.34
84511;BME280;74730;43.858;18.424;2023-12-29T01:37:17;96121.69;;;2.05;72.96
84511;BME280;74730;43.858;18.424;2023-12-29T01:39:43;96126.88;;;2.04;72.73
84511;BME280;74730;43.858;18.424;2023-12-29T01:42:09;96124.59;;;2.01;73.38
84511;BME280;74730;43.858;18.424;2023-12-29T01:44:36;96124.81;;;1.98;73.88
84511;BME280;74730;43.858;18.424;2023-12-29T01:47:03;96121.59;;;1.96;74.24
84511;BME280;74730;43.858;18.424;2023-12-29T01:49:33;96119.06;;;1.96;73.45
84511;BME280;74730;43.858;18.424;2023-12-29T01:52:00;96120.09;;;1.93;73.34
84511;BME280;74730;43.858;18.424;2023-12-29T01:54:34;96115.94;;;1.92;74.01
84511;BME280;74730;43.858;18.424;2023-12-29T01:57:02;96115.25;;;1.90;73.32
84511;BME280;74730;43.858;18.424;2023-12-29T01:59:28;96104.13;;;1.91;73.56
84511;BME280;74730;43.858;18.424;2023-12-29T02:01:55;96104.13;;;1.91;73.65
84511;BME280;74730;43.858;18.424;2023-12-29T02:04:27;96101.69;;;1.90;73.27
84511;BME280;74730;43.858;18.424;2023-12-29T02:06:52;96092.22;;;1.92;73.37
84511;BME280;74730;43.858;18.424;2023-12-29T02:09:18;96088.97;;;1.90;73.42
84511;BME280;74730;43.858;18.424;2023-12-29T02:11:45;96095.78;;;1.89;72.87
84511;BME280;74730;43.858;18.424;2023-12-29T02:14:11;96084.22;;;1.85;72.55
84511;BME280;74730;43.858;18.424;2023-12-29T02:19:40;96084.72;;;1.79;72.60
84511;BME280;74730;43.858;18.424;2023-12-29T02:22:08;96074.78;;;1.76;72.61
84511;BME280;74730;43.858;18.424;2023-12-29T02:24:35;96074.88;;;1.74;73.63
84511;BME280;74730;43.858;18.424;2023-12-29T02:29:44;96053.84;;;1.72;73.05
84511;BME280;74730;43.858;18.424;2023-12-29T02:32:14;96048.50;;;1.75;73.66
84511;BME280;74730;43.858;18.424;2023-12-29T02:34:43;96041.13;;;1.72;73.19
84511;BME280;74730;43.858;18.424;2023-12-29T02:37:11;96032.66;;;1.72;73.22
84511;BME280;74730;43.858;18.424;2023-12-29T02:39:37;96035.31;;;1.70;73.32
84511;BME280;74730;43.858;18.424;2023-12-29T02:42:03;96032.66;;;1.72;73.09
84511;BME280;74730;43.858;18.424;2023-12-29T02:44:29;96036.03;;;1.72;73.20
84511;BME280;74730;43.858;18.424;2023-12-29T02:46:54;96039.38;;;1.73;73.40
84511;BME280;74730;43.858;18.424;2023-12-29T02:49:20;96048.06;;;1.70;73.40
84511;BME280;74730;43.858;18.424;2023-12-29T02:51:47;96044.94;;;1.67;73.65
84511;BME280;74730;43.858;18.424;2023-12-29T02:54:13;96047.75;;;1.64;74.26
84511;BME280;74730;43.858;18.424;2023-12-29T02:56:38;96053.06;;;1.61;74.11
84511;BME280;74730;43.858;18.424;2023-12-29T02:59:04;96056.78;;;1.57;73.84
84511;BME280;74730;43.858;18.424;2023-12-29T03:01:30;96058.53;;;1.56;74.52
84511;BME280;74730;43.858;18.424;2023-12-29T03:03:55;96056.13;;;1.55;74.70
84511;BME280;74730;43.858;18.424;2023-12-29T03:06:21;96066.31;;;1.55;74.19
84511;BME280;74730;43.858;18.424;2023-12-29T03:08:47;96066.16;;;1.56;73.78
84511;BME280;74730;43.858;18.424;2023-12-29T03:11:12;96069.66;;;1.55;73.74
84511;BME280;74730;43.858;18.424;2023-12-29T03:13:38;96072.56;;;1.51;74.15
84511;BME280;74730;43.858;18.424;2023-12-29T03:16:04;96061.94;;;1.46;74.60
84511;BME280;74730;43.858;18.424;2023-12-29T03:18:29;96069.94;;;1.41;74.64
84511;BME280;74730;43.858;18.424;2023-12-29T03:20:55;96070.16;;;1.38;74.59
84511;BME280;74730;43.858;18.424;2023-12-29T03:23:21;96072.00;;;1.36;75.86
84511;BME280;74730;43.858;18.424;2023-12-29T03:25:46;96077.91;;;1.37;75.22
84511;BME280;74730;43.858;18.424;2023-12-29T03:28:12;96076.84;;;1.39;75.45
84511;BME280;74730;43.858;18.424;2023-12-29T03:30:37;96067.03;;;1.46;74.74
84511;BME280;74730;43.858;18.424;2023-12-29T03:33:03;96067.13;;;1.44;75.10
84511;BME280;74730;43.858;18.424;2023-12-29T03:35:29;96063.78;;;1.44;75.29
84511;BME280;74730;43.858;18.424;2023-12-29T03:37:55;96056.25;;;1.42;75.27
84511;BME280;74730;43.858;18.424;2023-12-29T03:40:20;96056.38;;;1.41;74.73
84511;BME280;74730;43.858;18.424;2023-12-29T03:42:46;96051.16;;;1.42;74.36
84511;BME280;74730;43.858;18.424;2023-12-29T03:45:11;96049.88;;;1.48;74.19
84511;BME280;74730;43.858;18.424;2023-12-29T03:47:37;96047.09;;;1.51;74.42
84511;BME280;74730;43.858;18.424;2023-12-29T03:50:04;96043.75;;;1.50;73.84
84511;BME280;74730;43.858;18.424;2023-12-29T03:52:29;96046.28;;;1.50;74.39
84511;BME280;74730;43.858;18.424;2023-12-29T03:54:55;96045.03;;;1.45;74.25
84511;BME280;74730;43.858;18.424;2023-12-29T03:57:20;96050.47;;;1.40;73.92
84511;BME280;74730;43.858;18.424;2023-12-29T03:59:46;96051.75;;;1.34;74.52
84511;BME280;74730;43.858;18.424;2023-12-29T04:02:11;96042.66;;;1.32;74.16
84511;BME280;74730;43.858;18.424;2023-12-29T04:04:37;96047.84;;;1.30;74.32
84511;BME280;74730;43.858;18.424;2023-12-29T04:07:04;96049.59;;;1.30;74.46
84511;BME280;74730;43.858;18.424;2023-12-29T04:09:30;96051.31;;;1.29;74.67
84511;BME280;74730;43.858;18.424;2023-12-29T04:11:56;96053.28;;;1.26;75.30
84511;BME280;74730;43.858;18.424;2023-12-29T04:14:21;96063.59;;;1.24;74.95
84511;BME280;74730;43.858;18.424;2023-12-29T04:16:47;96068.91;;;1.21;75.12
84511;BME280;74730;43.858;18.424;2023-12-29T04:19:13;96072.53;;;1.19;75.40
84511;BME280;74730;43.858;18.424;2023-12-29T04:21:38;96079.19;;;1.20;75.43
84511;BME280;74730;43.858;18.424;2023-12-29T04:24:04;96079.44;;;1.17;76.46
84511;BME280;74730;43.858;18.424;2023-12-29T04:26:35;96092.41;;;1.14;76.51
84511;BME280;74730;43.858;18.424;2023-12-29T04:29:01;96100.25;;;1.11;77.11
84511;BME280;74730;43.858;18.424;2023-12-29T04:31:26;96108.13;;;1.08;77.12
84511;BME280;74730;43.858;18.424;2023-12-29T04:33:52;96092.31;;;1.04;77.47
84511;BME280;74730;43.858;18.424;2023-12-29T04:36:18;96106.41;;;1.08;77.35
84511;BME280;74730;43.858;18.424;2023-12-29T04:38:44;96111.25;;;1.11;76.86
84511;BME280;74730;43.858;18.424;2023-12-29T04:41:12;96111.03;;;1.14;76.12
84511;BME280;74730;43.858;18.424;2023-12-29T04:43:38;96109.06;;;1.18;76.56
84511;BME280;74730;43.858;18.424;2023-12-29T04:46:03;96115.78;;;1.19;76.67
84511;BME280;74730;43.858;18.424;2023-12-29T04:48:29;96106.53;;;1.18;76.12
84511;BME280;74730;43.858;18.424;2023-12-29T04:50:55;96107.34;;;1.18;76.25
84511;BME280;74730;43.858;18.424;2023-12-29T04:53:20;96106.38;;;1.19;75.43
84511;BME280;74730;43.858;18.424;2023-12-29T04:55:46;96113.91;;;1.21;76.07
84511;BME280;74730;43.858;18.424;2023-12-29T04:58:11;96115.53;;;1.22;75.62
84511;BME280;74730;43.858;18.424;2023-12-29T05:00:37;96108.81;;;1.21;74.92
84511;BME280;74730;43.858;18.424;2023-12-29T05:03:03;96105.34;;;1.22;75.35
84511;BME280;74730;43.858;18.424;2023-12-29T05:05:28;96112.28;;;1.20;76.01
84511;BME280;74730;43.858;18.424;2023-12-29T05:07:54;96120.63;;;1.22;75.70
84511;BME280;74730;43.858;18.424;2023-12-29T05:10:19;96114.72;;;1.21;74.85
84511;BME280;74730;43.858;18.424;2023-12-29T05:12:45;96115.63;;;1.20;75.30
84511;BME280;74730;43.858;18.424;2023-12-29T05:15:10;96117.25;;;1.21;74.75
84511;BME280;74730;43.858;18.424;2023-12-29T05:17:36;96116.22;;;1.24;75.27
84511;BME280;74730;43.858;18.424;2023-12-29T05:20:02;96119.69;;;1.23;75.03
84511;BME280;74730;43.858;18.424;2023-12-29T05:22:28;96120.88;;;1.19;74.99
84511;BME280;74730;43.858;18.424;2023-12-29T05:24:54;96122.47;;;1.20;75.23
84511;BME280;74730;43.858;18.424;2023-12-29T05:27:23;96119.81;;;1.21;75.82
84511;BME280;74730;43.858;18.424;2023-12-29T05:29:48;96118.06;;;1.22;75.75
84511;BME280;74730;43.858;18.424;2023-12-29T05:32:14;96119.47;;;1.26;75.40
84511;BME280;74730;43.858;18.424;2023-12-29T05:34:39;96121.19;;;1.25;75.24
84511;BME280;74730;43.858;18.424;2023-12-29T05:37:05;96115.06;;;1.28;75.37
84511;BME280;74730;43.858;18.424;2023-12-29T05:39:30;96124.19;;;1.30;75.48
84511;BME280;74730;43.858;18.424;2023-12-29T05:41:56;96131.81;;;1.30;75.56
84511;BME280;74730;43.858;18.424;2023-12-29T05:44:21;96137.72;;;1.31;75.39
84511;BME280;74730;43.858;18.424;2023-12-29T05:46:47;96150.09;;;1.24;76.25
84511;BME280;74730;43.858;18.424;2023-12-29T05:49:13;96146.06;;;1.22;76.22
84511;BME280;74730;43.858;18.424;2023-12-29T05:51:38;96138.22;;;1.14;76.70
84511;BME280;74730;43.858;18.424;2023-12-29T05:54:04;96135.22;;;1.09;76.32
84511;BME280;74730;43.858;18.424;2023-12-29T05:56:30;96132.31;;;1.02;76.68
84511;BME280;74730;43.858;18.424;2023-12-29T05:58:55;96132.66;;;0.98;77.67
84511;BME280;74730;43.858;18.424;2023-12-29T06:01:21;96135.66;;;1.03;77.65
84511;BME280;74730;43.858;18.424;2023-12-29T06:03:46;96131.75;;;1.10;77.70
84511;BME280;74730;43.858;18.424;2023-12-29T06:06:12;96141.44;;;1.16;77.74
84511;BME280;74730;43.858;18.424;2023-12-29T06:08:37;96136.22;;;1.28;78.04
84511;BME280;74730;43.858;18.424;2023-12-29T06:11:03;96139.34;;;1.32;76.73
84511;BME280;74730;43.858;18.424;2023-12-29T06:13:28;96132.41;;;1.34;76.55
84511;BME280;74730;43.858;18.424;2023-12-29T06:15:54;96132.28;;;1.36;76.82
84511;BME280;74730;43.858;18.424;2023-12-29T06:18:21;96127.31;;;1.34;76.32
84511;BME280;74730;43.858;18.424;2023-12-29T06:20:46;96127.75;;;1.39;77.08
84511;BME280;74730;43.858;18.424;2023-12-29T06:23:12;96134.38;;;1.42;76.31
84511;BME280;74730;43.858;18.424;2023-12-29T06:25:37;96139.09;;;1.46;76.30
84511;BME280;74730;43.858;18.424;2023-12-29T06:28:05;96133.78;;;1.49;76.27
84511;BME280;74730;43.858;18.424;2023-12-29T06:30:31;96146.25;;;1.52;76.14
84511;BME280;74730;43.858;18.424;2023-12-29T06:32:57;96151.22;;;1.54;76.20
84511;BME280;74730;43.858;18.424;2023-12-29T06:35:23;96144.72;;;1.61;76.42
84511;BME280;74730;43.858;18.424;2023-12-29T06:37:48;96146.25;;;1.63;78.32
84511;BME280;74730;43.858;18.424;2023-12-29T06:40:17;96144.63;;;1.62;78.39
84511;BME280;74730;43.858;18.424;2023-12-29T06:42:43;96134.19;;;1.65;78.76
84511;BME280;74730;43.858;18.424;2023-12-29T06:45:08;96138.56;;;1.74;77.04
84511;BME280;74730;43.858;18.424;2023-12-29T06:47:34;96132.75;;;1.84;77.50
84511;BME280;74730;43.858;18.424;2023-12-29T06:50:00;96135.81;;;1.98;76.11
84511;BME280;74730;43.858;18.424;2023-12-29T06:52:27;96142.63;;;2.09;75.97
84511;BME280;74730;43.858;18.424;2023-12-29T06:54:55;96131.13;;;2.14;74.88
84511;BME280;74730;43.858;18.424;2023-12-29T06:57:20;96122.50;;;2.27;74.62
84511;BME280;74730;43.858;18.424;2023-12-29T06:59:46;96116.97;;;2.42;74.86
84511;BME280;74730;43.858;18.424;2023-12-29T07:02:12;96121.00;;;2.65;74.08
84511;BME280;74730;43.858;18.424;2023-12-29T07:04:41;96132.91;;;2.86;75.00
84511;BME280;74730;43.858;18.424;2023-12-29T07:07:07;96133.50;;;2.99;73.95
84511;BME280;74730;43.858;18.424;2023-12-29T07:09:32;96119.97;;;3.08;73.20
84511;BME280;74730;43.858;18.424;2023-12-29T07:11:58;96125.28;;;3.16;72.79
84511;BME280;74730;43.858;18.424;2023-12-29T07:14:23;96126.91;;;3.27;72.29
84511;BME280;74730;43.858;18.424;2023-12-29T07:16:49;96127.44;;;3.30;72.71
84511;BME280;74730;43.858;18.424;2023-12-29T07:19:14;96120.38;;;3.43;73.26
84511;BME280;74730;43.858;18.424;2023-12-29T07:21:40;96126.31;;;3.63;71.61
84511;BME280;74730;43.858;18.424;2023-12-29T07:24:06;96132.78;;;3.77;70.75
84511;BME280;74730;43.858;18.424;2023-12-29T07:26:34;96130.78;;;3.90;70.11
84511;BME280;74730;43.858;18.424;2023-12-29T07:28:59;96134.28;;;4.08;69.86
84511;BME280;74730;43.858;18.424;2023-12-29T07:31:25;96122.19;;;3.91;68.46
84511;BME280;74730;43.858;18.424;2023-12-29T07:33:51;96124.59;;;3.83;68.50
84511;BME280;74730;43.858;18.424;2023-12-29T07:36:16;96127.16;;;3.83;69.02
84511;BME280;74730;43.858;18.424;2023-12-29T07:38:42;96120.19;;;3.85;69.20
84511;BME280;74730;43.858;18.424;2023-12-29T07:41:08;96125.13;;;3.86;69.40
84511;BME280;74730;43.858;18.424;2023-12-29T07:43:35;96128.63;;;3.95;69.20
84511;BME280;74730;43.858;18.424;2023-12-29T07:46:02;96130.56;;;4.12;69.40
84511;BME280;74730;43.858;18.424;2023-12-29T07:48:27;96146.84;;;4.30;68.62
84511;BME280;74730;43.858;18.424;2023-12-29T07:50:53;96114.78;;;4.36;68.68
84511;BME280;74730;43.858;18.424;2023-12-29T07:53:18;96115.19;;;4.31;68.40
84511;BME280;74730;43.858;18.424;2023-12-29T07:55:44;96129.88;;;4.39;67.75
84511;BME280;74730;43.858;18.424;2023-12-29T07:58:12;96127.94;;;4.51;68.05
84511;BME280;74730;43.858;18.424;2023-12-29T08:00:37;96120.69;;;4.56;68.61
84511;BME280;74730;43.858;18.424;2023-12-29T08:03:03;96119.41;;;4.79;69.24
84511;BME280;74730;43.858;18.424;2023-12-29T08:05:30;96104.03;;;4.88;66.92
84511;BME280;74730;43.858;18.424;2023-12-29T08:07:56;96107.22;;;5.00;67.18
84511;BME280;74730;43.858;18.424;2023-12-29T08:10:22;96107.00;;;5.21;65.92
84511;BME280;74730;43.858;18.424;2023-12-29T08:12:48;96108.94;;;5.36;65.42
84511;BME280;74730;43.858;18.424;2023-12-29T08:15:13;96114.72;;;5.39;64.29
84511;BME280;74730;43.858;18.424;2023-12-29T08:17:39;96123.31;;;5.47;64.12
84511;BME280;74730;43.858;18.424;2023-12-29T08:20:05;96114.66;;;5.75;63.01
84511;BME280;74730;43.858;18.424;2023-12-29T08:22:31;96114.13;;;6.17;63.11
84511;BME280;74730;43.858;18.424;2023-12-29T08:24:58;96110.47;;;6.63;62.92
84511;BME280;74730;43.858;18.424;2023-12-29T08:27:24;96109.75;;;7.04;61.09
84511;BME280;74730;43.858;18.424;2023-12-29T08:29:53;96110.00;;;7.27;61.09
84511;BME280;74730;43.858;18.424;2023-12-29T08:32:19;96107.50;;;7.43;61.18
84511;BME280;74730;43.858;18.424;2023-12-29T08:34:45;96112.72;;;7.68;59.20
84511;BME280;74730;43.858;18.424;2023-12-29T08:37:10;96108.59;;;7.83;59.18
84511;BME280;74730;43.858;18.424;2023-12-29T08:39:36;96109.69;;;7.72;58.92
84511;BME280;74730;43.858;18.424;2023-12-29T08:42:02;96119.03;;;7.81;58.72
84511;BME280;74730;43.858;18.424;2023-12-29T08:44:28;96114.34;;;7.77;57.69
84511;BME280;74730;43.858;18.424;2023-12-29T08:46:53;96113.94;;;7.47;58.19
84511;BME280;74730;43.858;18.424;2023-12-29T08:49:19;96112.34;;;7.46;60.63
84511;BME280;74730;43.858;18.424;2023-12-29T08:51:45;96119.25;;;7.46;60.31
84511;BME280;74730;43.858;18.424;2023-12-29T08:54:10;96112.81;;;7.42;61.17
84511;BME280;74730;43.858;18.424;2023-12-29T08:56:36;96108.31;;;7.52;61.70
84511;BME280;74730;43.858;18.424;2023-12-29T08:59:02;96108.03;;;7.63;59.73
84511;BME280;74730;43.858;18.424;2023-12-29T09:01:27;96105.47;;;7.63;59.38
84511;BME280;74730;43.858;18.424;2023-12-29T09:03:53;96107.91;;;7.81;59.70
84511;BME280;74730;43.858;18.424;2023-12-29T09:06:18;96108.72;;;7.81;59.03
84511;BME280;74730;43.858;18.424;2023-12-29T09:08:44;96105.41;;;8.13;58.15
84511;BME280;74730;43.858;18.424;2023-12-29T09:11:10;96111.06;;;8.41;57.89
84511;BME280;74730;43.858;18.424;2023-12-29T09:13:35;96108.66;;;8.64;56.19
84511;BME280;74730;43.858;18.424;2023-12-29T09:16:01;96106.72;;;8.74;55.80
84511;BME280;74730;43.858;18.424;2023-12-29T09:18:26;96099.44;;;8.94;55.05
84511;BME280;74730;43.858;18.424;2023-12-29T09:20:52;96093.34;;;8.78;55.46
84511;BME280;74730;43.858;18.424;2023-12-29T09:23:17;96096.22;;;8.75;55.77
84511;BME280;74730;43.858;18.424;2023-12-29T09:25:43;96095.38;;;9.07;55.41
84511;BME280;74730;43.858;18.424;2023-12-29T09:28:09;96093.84;;;9.29;54.79
84511;BME280;74730;43.858;18.424;2023-12-29T09:30:34;96088.59;;;9.45;54.83
84511;BME280;74730;43.858;18.424;2023-12-29T09:33:00;96086.88;;;9.38;54.29
84511;BME280;74730;43.858;18.424;2023-12-29T09:35:26;96081.22;;;9.42;54.57
84511;BME280;74730;43.858;18.424;2023-12-29T09:37:51;96075.34;;;9.56;54.16
84511;BME280;74730;43.858;18.424;2023-12-29T09:40:17;96078.97;;;9.70;54.21
84511;BME280;74730;43.858;18.424;2023-12-29T09:42:43;96077.38;;;9.92;53.66
84511;BME280;74730;43.858;18.424;2023-12-29T09:45:13;96079.97;;;9.92;53.30
84511;BME280;74730;43.858;18.424;2023-12-29T09:47:40;96072.13;;;10.08;53.31
84511;BME280;74730;43.858;18.424;2023-12-29T09:50:10;96076.75;;;10.20;52.71
84511;BME280;74730;43.858;18.424;2023-12-29T09:52:37;96077.41;;;10.37;52.38
84511;BME280;74730;43.858;18.424;2023-12-29T09:55:04;96063.72;;;10.51;51.84
84511;BME280;74730;43.858;18.424;2023-12-29T09:57:30;96061.88;;;10.60;51.65
84511;BME280;74730;43.858;18.424;2023-12-29T09:59:57;96047.72;;;10.56;51.66
84511;BME280;74730;43.858;18.424;2023-12-29T10:02:23;96052.03;;;10.26;52.48
84511;BME280;74730;43.858;18.424;2023-12-29T10:04:49;96046.72;;;10.19;52.52
84511;BME280;74730;43.858;18.424;2023-12-29T10:07:24;96037.25;;;10.12;52.78
84511;BME280;74730;43.858;18.424;2023-12-29T10:09:56;96027.44;;;10.30;52.95
84511;BME280;74730;43.858;18.424;2023-12-29T10:12:28;96015.28;;;10.53;52.55
84511;BME280;74730;43.858;18.424;2023-12-29T10:23:10;95990.97;;;10.10;53.23
84511;BME280;74730;43.858;18.424;2023-12-29T10:25:39;95993.09;;;10.07;53.17
84511;BME280;74730;43.858;18.424;2023-12-29T10:28:06;95992.56;;;10.11;53.30
84511;BME280;74730;43.858;18.424;2023-12-29T10:30:32;95993.03;;;10.15;52.95
84511;BME280;74730;43.858;18.424;2023-12-29T10:33:04;95984.13;;;10.17;53.44
84511;BME280;74730;43.858;18.424;2023-12-29T10:35:30;95992.00;;;10.24;53.43
84511;BME280;74730;43.858;18.424;2023-12-29T10:38:12;95979.00;;;10.32;53.48
84511;BME280;74730;43.858;18.424;2023-12-29T10:40:38;95983.63;;;10.37;53.68
84511;BME280;74730;43.858;18.424;2023-12-29T10:43:04;95981.53;;;10.40;53.93
84511;BME280;74730;43.858;18.424;2023-12-29T10:45:34;95976.97;;;10.42;54.68
84511;BME280;74730;43.858;18.424;2023-12-29T10:48:00;95974.78;;;10.54;53.52
84511;BME280;74730;43.858;18.424;2023-12-29T10:50:26;95974.41;;;10.57;54.21
84511;BME280;74730;43.858;18.424;2023-12-29T10:53:13;95980.81;;;10.61;54.82
84511;BME280;74730;43.858;18.424;2023-12-29T10:55:39;95974.31;;;10.65;54.81
84511;BME280;74730;43.858;18.424;2023-12-29T10:58:05;95971.19;;;10.70;53.68
84511;BME280;74730;43.858;18.424;2023-12-29T11:00:31;95972.28;;;10.75;53.75
84511;BME280;74730;43.858;18.424;2023-12-29T11:02:58;95959.34;;;10.90;52.02
84511;BME280;74730;43.858;18.424;2023-12-29T11:05:27;95955.22;;;10.95;52.63
84511;BME280;74730;43.858;18.424;2023-12-29T11:07:56;95951.47;;;10.98;53.19
84511;BME280;74730;43.858;18.424;2023-12-29T11:10:25;95938.81;;;11.03;52.28
84511;BME280;74730;43.858;18.424;2023-12-29T11:12:51;95947.81;;;11.07;52.00
84511;BME280;74730;43.858;18.424;2023-12-29T11:15:17;95941.03;;;11.06;52.19
84511;BME280;74730;43.858;18.424;2023-12-29T11:17:43;95937.00;;;11.18;50.25
84511;BME280;74730;43.858;18.424;2023-12-29T11:20:15;95937.06;;;11.25;51.71
84511;BME280;74730;43.858;18.424;2023-12-29T11:22:43;95925.78;;;11.32;50.39
84511;BME280;74730;43.858;18.424;2023-12-29T11:25:09;95932.66;;;11.40;49.52
84511;BME280;74730;43.858;18.424;2023-12-29T11:27:35;95928.97;;;11.49;49.82
84511;BME280;74730;43.858;18.424;2023-12-29T11:30:03;95927.59;;;11.53;50.27
84511;BME280;74730;43.858;18.424;2023-12-29T11:35:19;95918.19;;;11.67;49.76
84511;BME280;74730;43.858;18.424;2023-12-29T11:37:51;95916.47;;;11.74;50.28
84511;BME280;74730;43.858;18.424;2023-12-29T11:40:38;95915.78;;;11.86;50.21
84511;BME280;74730;43.858;18.424;2023-12-29T11:43:14;95911.28;;;11.95;49.98
84511;BME280;74730;43.858;18.424;2023-12-29T11:45:42;95911.97;;;12.10;50.02
84511;BME280;74730;43.858;18.424;2023-12-29T11:48:08;95909.34;;;12.31;48.44
84511;BME280;74730;43.858;18.424;2023-12-29T11:50:35;95900.72;;;12.59;48.05
84511;BME280;74730;43.858;18.424;2023-12-29T11:53:02;95903.00;;;12.81;46.97
84511;BME280;74730;43.858;18.424;2023-12-29T11:55:35;95896.06;;;12.95;46.09
84511;BME280;74730;43.858;18.424;2023-12-29T11:58:01;95899.31;;;13.10;47.08
84511;BME280;74730;43.858;18.424;2023-12-29T12:00:45;95892.78;;;13.21;47.18
84511;BME280;74730;43.858;18.424;2023-12-29T12:03:30;95894.19;;;13.23;46.78
84511;BME280;74730;43.858;18.424;2023-12-29T12:05:59;95893.81;;;13.26;46.55
84511;BME280;74730;43.858;18.424;2023-12-29T12:13:52;95889.25;;;13.42;46.03
84511;BME280;74730;43.858;18.424;2023-12-29T12:19:12;95882.09;;;13.70;46.05
84511;BME280;74730;43.858;18.424;2023-12-29T12:21:38;95871.06;;;13.94;45.09
84511;BME280;74730;43.858;18.424;2023-12-29T12:24:04;95877.44;;;14.18;45.09
84511;BME280;74730;43.858;18.424;2023-12-29T12:26:33;95875.44;;;14.33;44.35
84511;BME280;74730;43.858;18.424;2023-12-29T12:29:00;95864.66;;;14.43;43.42
84511;BME280;74730;43.858;18.424;2023-12-29T12:31:26;95865.88;;;14.20;43.87
84511;BME280;74730;43.858;18.424;2023-12-29T12:33:55;95877.47;;;14.11;44.76
84511;BME280;74730;43.858;18.424;2023-12-29T12:36:22;95871.09;;;14.01;44.09
84511;BME280;74730;43.858;18.424;2023-12-29T12:38:54;95868.88;;;13.91;45.25
84511;BME280;74730;43.858;18.424;2023-12-29T12:41:21;95865.72;;;13.83;45.88
84511;BME280;74730;43.858;18.424;2023-12-29T12:44:10;95866.69;;;13.68;45.69
84511;BME280;74730;43.858;18.424;2023-12-29T12:46:41;95861.91;;;13.65;46.66
84511;BME280;74730;43.858;18.424;2023-12-29T12:49:10;95865.31;;;13.59;45.99
84511;BME280;74730;43.858;18.424;2023-12-29T12:51:36;95864.09;;;13.49;46.65
84511;BME280;74730;43.858;18.424;2023-12-29T12:54:02;95861.91;;;13.46;47.31
84511;BME280;74730;43.858;18.424;2023-12-29T12:56:28;95858.50;;;13.39;47.69
84511;BME280;74730;43.858;18.424;2023-12-29T12:58:57;95855.50;;;13.28;47.84
84511;BME280;74730;43.858;18.424;2023-12-29T13:01:24;95853.06;;;13.20;47.13
84511;BME280;74730;43.858;18.424;2023-12-29T13:03:51;95857.47;;;13.13;47.34
84511;BME280;74730;43.858;18.424;2023-12-29T13:06:17;95846.81;;;13.02;47.93
84511;BME280;74730;43.858;18.424;2023-12-29T13:08:44;95850.63;;;12.99;48.14
84511;BME280;74730;43.858;18.424;2023-12-29T13:11:10;95850.63;;;12.99;47.88
84511;BME280;74730;43.858;18.424;2023-12-29T13:13:42;95858.22;;;13.01;47.83
84511;BME280;74730;43.858;18.424;2023-12-29T13:16:08;95851.66;;;13.11;48.06
84511;BME280;74730;43.858;18.424;2023-12-29T13:18:34;95857.06;;;13.16;47.64
84511;BME280;74730;43.858;18.424;2023-12-29T13:21:03;95856.22;;;13.09;47.44